KPEO

Details ICAO KPEO
Name PENN YAN
Region United States
Timezone America/New_York (UTC-4.0)
Plans Departing 2
Arriving 5
Stats Elevation 990 ft / 302 m (AMSL)
Location 42.638095° -77.053054°
Runways 2
Magnetic Variation 11.679° W
Sunrise 2018-05-26 09:38:01 UTC / 2018-05-26 05:38:01 Local
Sunset 2018-05-27 00:35:24 UTC / 2018-05-26 20:35:24 Local
Advertisement - Login to hide

Runways

ID Width Length Bearing (true) Bearing (mag) Surface Threshold Offset Overrun Length
01 100 ft / 30 m 5,506 ft / 1,678 m 356.91° 8.59° Asphalt 0 ft / 0 m 0 ft / 0 m
10 50 ft / 15 m 3,553 ft / 1,083 m 88.57° 100.25° Asphalt 361 ft / 110 m 200 ft / 61 m
19 100 ft / 30 m 5,506 ft / 1,678 m 176.91° 188.59° Asphalt 0 ft / 0 m 0 ft / 0 m
28 50 ft / 15 m 3,553 ft / 1,083 m 268.58° 280.26° Asphalt 384 ft / 117 m 0 ft / 0 m

Map

Weather


0- 5 10 15 20 25 30 35+ Temperature / ° C

Clouds and Precipitation
Forecast for 2018-05-27 00:00 UTC. Updated an hour ago

Ground ~20,000 ft ~40,000 ft Winds

METAR

KPEO 262353Z AUTO 00000KT 10SM CLR 25/16 A2987 RMK AO2 SLP106 T02500156 10294 20244 53014

TAF

Not found

Frequencies

Recorded 121.17 MHz ASOS
Approach 124.30 MHz ELIMIRA APP/DEP
Unicom 123.00 MHz CTAF/UNICOM
Warning: Do not use this data for real-world aviation or navigation. No guarantee of current accuracy is given.